createdAt,value
2019-05-22T00:01:10.932Z,90.50
2019-05-22T00:06:14.582Z,90.50
2019-05-22T00:11:15.738Z,90.00
2019-05-22T00:13:48.165Z,89.80
2019-05-22T00:18:51.369Z,89.80
2019-05-22T00:21:22.308Z,90.60
2019-05-22T00:23:54.161Z,90.00
2019-05-22T00:26:24.930Z,90.40
2019-05-22T00:28:55.908Z,90.70
2019-05-22T00:31:27.184Z,90.70
2019-05-22T00:33:59.017Z,90.90
2019-05-22T00:36:30.595Z,90.90
2019-05-22T00:39:01.883Z,91.30
2019-05-22T00:41:34.315Z,91.30
2019-05-22T00:44:07.200Z,91.50
2019-05-22T00:46:39.573Z,90.90
2019-05-22T00:49:11.950Z,91.40
2019-05-22T00:51:45.870Z,91.00
2019-05-22T00:54:18.199Z,90.70
2019-05-22T00:56:50.335Z,90.80
2019-05-22T00:59:22.868Z,91.30
2019-05-22T01:01:57.084Z,91.30
2019-05-22T01:04:30.008Z,91.00
2019-05-22T01:07:02.179Z,91.40
2019-05-22T01:09:34.089Z,91.30
2019-05-22T01:12:05.209Z,91.20
2019-05-22T01:14:42.937Z,90.80
2019-05-22T01:17:09.301Z,91.10
2019-05-22T01:19:41.437Z,91.10
2019-05-22T01:22:12.536Z,91.00
2019-05-22T01:24:43.611Z,91.10
2019-05-22T01:27:15.188Z,90.60
2019-05-22T01:29:47.545Z,90.70
2019-05-22T01:32:19.808Z,90.40
2019-05-22T01:34:51.565Z,90.10
2019-05-22T01:37:23.220Z,90.60
2019-05-22T01:39:56.899Z,91.00
2019-05-22T01:42:31.489Z,90.90
2019-05-22T01:45:06.618Z,90.90
2019-05-22T01:47:37.911Z,91.00
2019-05-22T01:50:07.880Z,90.80
2019-05-22T01:52:39.471Z,90.70
2019-05-22T01:55:11.228Z,91.00
2019-05-22T01:57:42.410Z,91.10
2019-05-22T02:00:14.477Z,91.20
2019-05-22T02:02:47.566Z,91.70
2019-05-22T02:05:19.649Z,91.70
2019-05-22T02:07:50.932Z,92.20
2019-05-22T02:10:25.605Z,91.90
2019-05-22T02:12:59.236Z,92.10
2019-05-22T02:15:31.581Z,92.20
2019-05-22T02:18:03.835Z,91.80
2019-05-22T02:20:34.717Z,91.60
2019-05-22T02:23:07.362Z,91.80
2019-05-22T02:25:38.924Z,91.70
2019-05-22T02:28:10.501Z,92.30
2019-05-22T02:30:41.555Z,92.30
2019-05-22T02:33:14.282Z,92.20
2019-05-22T02:35:46.716Z,92.10
2019-05-22T02:38:18.038Z,92.20
2019-05-22T02:40:48.859Z,92.00
2019-05-22T02:43:19.980Z,92.10
2019-05-22T02:45:51.362Z,91.80
2019-05-22T02:48:23.371Z,91.50
2019-05-22T02:50:55.084Z,91.80
2019-05-22T02:53:27.030Z,91.90
2019-05-22T02:55:58.384Z,92.00
2019-05-22T02:58:30.233Z,91.70
2019-05-22T03:01:04.148Z,92.00
2019-05-22T03:03:35.998Z,92.40
2019-05-22T03:06:10.329Z,92.40
2019-05-22T03:08:43.713Z,92.20
2019-05-22T03:11:19.646Z,91.70
2019-05-22T03:13:53.366Z,92.00
2019-05-22T03:16:27.339Z,92.20
2019-05-22T03:19:09.083Z,92.10
2019-05-22T03:21:31.781Z,91.70
2019-05-22T03:24:02.675Z,91.50
2019-05-22T03:26:36.977Z,91.10
2019-05-22T03:29:10.103Z,90.50
2019-05-22T03:31:41.199Z,90.80
2019-05-22T03:34:13.546Z,90.70
2019-05-22T03:36:44.607Z,90.30
2019-05-22T03:39:16.983Z,90.70
2019-05-22T03:41:48.471Z,90.30
2019-05-22T03:44:19.244Z,90.50
2019-05-22T03:46:50.826Z,90.70
2019-05-22T03:49:29.666Z,89.10
2019-05-22T03:51:53.799Z,90.10
2019-05-22T03:54:25.512Z,89.00
2019-05-22T03:56:56.387Z,88.60
2019-05-22T03:59:27.236Z,90.10
2019-05-22T04:02:01.062Z,88.30
2019-05-22T04:04:35.260Z,88.00
2019-05-22T04:07:07.461Z,88.70
2019-05-22T04:09:39.668Z,86.70
2019-05-22T04:12:11.860Z,86.00
2019-05-22T04:14:48.170Z,83.60
2019-05-22T04:17:19.201Z,84.90
2019-05-22T04:19:51.829Z,84.60
2019-05-22T04:22:23.756Z,84.80
2019-05-22T04:24:54.731Z,82.10
2019-05-22T04:27:25.823Z,82.90
2019-05-22T04:29:57.097Z,82.00
2019-05-22T04:32:29.360Z,80.40
2019-05-22T04:35:00.324Z,82.40
2019-05-22T04:37:32.193Z,83.30
2019-05-22T04:40:06.850Z,81.90
2019-05-22T04:42:37.497Z,82.80
2019-05-22T04:45:11.301Z,82.30
2019-05-22T04:47:42.014Z,80.70
2019-05-22T04:50:13.142Z,81.80
2019-05-22T04:52:43.949Z,81.20
2019-05-22T04:55:15.297Z,81.30
2019-05-22T04:57:46.404Z,78.10
2019-05-22T05:00:17.981Z,78.30
2019-05-22T05:02:49.228Z,79.20
2019-05-22T05:05:21.038Z,79.20
2019-05-22T05:07:53.396Z,76.70
2019-05-22T05:10:24.618Z,76.20
2019-05-22T05:12:57.281Z,76.50
2019-05-22T05:15:28.533Z,76.90
2019-05-22T05:17:59.509Z,75.80
2019-05-22T05:20:30.510Z,76.80
2019-05-22T05:23:01.585Z,76.60
2019-05-22T05:25:32.997Z,77.80
2019-05-22T05:28:04.222Z,75.70
2019-05-22T05:30:35.444Z,77.40
2019-05-22T05:33:06.642Z,77.00
2019-05-22T05:35:37.762Z,75.70
2019-05-22T05:38:08.902Z,76.40
2019-05-22T05:40:40.919Z,76.30
2019-05-22T05:43:12.565Z,74.90
2019-05-22T05:45:44.317Z,74.60
2019-05-22T05:48:17.671Z,74.10
2019-05-22T05:50:50.953Z,72.10
2019-05-22T05:53:23.019Z,72.60
2019-05-22T05:55:59.283Z,73.10
2019-05-22T05:58:31.053Z,73.80
2019-05-22T06:01:05.678Z,73.30
2019-05-22T06:03:39.974Z,73.90
2019-05-22T06:06:14.006Z,71.40
2019-05-22T06:08:45.252Z,72.10
2019-05-22T06:11:18.469Z,71.60
2019-05-22T06:13:49.499Z,72.40
2019-05-22T06:16:24.007Z,71.50
2019-05-22T06:18:57.140Z,70.50
2019-05-22T06:21:28.468Z,71.70
2019-05-22T06:24:01.750Z,69.00
2019-05-22T06:26:35.541Z,69.70
2019-05-22T06:29:06.816Z,70.20
2019-05-22T06:31:40.465Z,68.80
2019-05-22T06:34:11.861Z,69.30
2019-05-22T06:36:43.572Z,68.80
2019-05-22T06:39:15.051Z,69.40
2019-05-22T06:41:46.488Z,68.80
2019-05-22T06:44:20.103Z,66.70
2019-05-22T06:46:51.014Z,68.10
2019-05-22T06:49:24.238Z,68.30
2019-05-22T06:51:54.910Z,69.10
2019-05-22T06:54:25.613Z,67.00
2019-05-22T06:56:56.225Z,67.20
2019-05-22T06:59:27.221Z,66.10
2019-05-22T07:02:01.363Z,66.50
2019-05-22T07:04:31.683Z,65.40
2019-05-22T07:07:04.274Z,65.50
2019-05-22T07:09:35.205Z,65.40
2019-05-22T07:12:06.511Z,64.70
2019-05-22T07:14:38.772Z,65.40
2019-05-22T07:17:10.790Z,65.50
2019-05-22T07:19:42.396Z,64.00
2019-05-22T07:22:14.153Z,62.90
2019-05-22T07:24:45.238Z,63.60
2019-05-22T07:27:19.822Z,63.80
2019-05-22T07:29:50.818Z,63.60
2019-05-22T07:32:22.479Z,62.90
2019-05-22T07:34:53.449Z,62.40
2019-05-22T07:37:24.914Z,63.60
2019-05-22T07:39:55.707Z,62.90
2019-05-22T07:42:26.389Z,61.50
2019-05-22T07:44:57.262Z,61.80
2019-05-22T07:47:28.592Z,61.60
2019-05-22T07:49:59.297Z,62.20
2019-05-22T07:52:30.216Z,62.70
2019-05-22T07:57:31.418Z,60.80
2019-05-22T08:00:02.729Z,61.50
2019-05-22T08:02:36.088Z,61.70
2019-05-22T08:05:07.969Z,60.60
2019-05-22T08:07:41.842Z,62.80
2019-05-22T08:10:15.025Z,61.20
2019-05-22T08:12:46.736Z,61.30
2019-05-22T08:15:18.018Z,60.10
2019-05-22T08:17:48.695Z,59.70
2019-05-22T08:20:19.363Z,61.10
2019-05-22T08:22:50.016Z,61.20
2019-05-22T08:25:20.878Z,60.20
2019-05-22T08:27:52.044Z,59.20
2019-05-22T08:30:23.081Z,59.90
2019-05-22T08:32:54.548Z,59.70
2019-05-22T08:35:25.902Z,61.30
2019-05-22T08:37:57.570Z,61.00
2019-05-22T08:40:28.663Z,61.20
2019-05-22T08:42:59.921Z,60.90
2019-05-22T08:45:31.305Z,60.70
2019-05-22T08:48:02.827Z,61.20
2019-05-22T08:50:33.885Z,59.80
2019-05-22T08:53:05.318Z,60.50
2019-05-22T08:55:36.810Z,60.00
2019-05-22T08:58:09.007Z,60.00
2019-05-22T09:00:40.094Z,59.20
2019-05-22T09:03:12.235Z,59.50
2019-05-22T09:05:43.064Z,59.20
2019-05-22T09:08:13.853Z,59.70
2019-05-22T09:10:44.618Z,60.00
2019-05-22T09:13:15.288Z,60.90
2019-05-22T09:15:45.930Z,59.90
2019-05-22T09:18:16.636Z,60.70
2019-05-22T09:20:49.593Z,60.70
2019-05-22T09:23:19.634Z,60.40
2019-05-22T09:25:50.350Z,60.50
2019-05-22T09:28:21.031Z,60.70
2019-05-22T09:30:51.705Z,60.80
2019-05-22T09:33:22.824Z,61.20
2019-05-22T09:35:54.343Z,60.50
2019-05-22T09:38:25.040Z,60.40
2019-05-22T09:40:55.692Z,60.00
2019-05-22T09:43:26.343Z,61.10
2019-05-22T09:45:57.082Z,59.50
2019-05-22T09:48:27.739Z,59.00
2019-05-22T09:50:59.086Z,59.50
2019-05-22T09:53:30.802Z,59.70
2019-05-22T09:56:01.731Z,59.70
2019-05-22T09:58:32.557Z,59.90
2019-05-22T10:01:03.766Z,57.90
2019-05-22T10:03:34.428Z,58.90
2019-05-22T10:06:05.670Z,58.50
2019-05-22T10:08:36.500Z,59.20
2019-05-22T10:11:07.489Z,59.50
2019-05-22T10:13:38.550Z,60.70
2019-05-22T10:16:09.557Z,58.70
2019-05-22T10:18:40.554Z,60.90
2019-05-22T10:21:11.408Z,60.90
2019-05-22T10:23:42.728Z,61.50
2019-05-22T10:26:13.944Z,59.80
2019-05-22T10:28:45.271Z,60.40
2019-05-22T10:31:17.842Z,61.30
2019-05-22T10:33:51.773Z,60.50
2019-05-22T10:36:20.456Z,60.90
2019-05-22T10:38:51.229Z,61.60
2019-05-22T10:41:22.454Z,62.80
2019-05-22T10:43:53.430Z,62.40
2019-05-22T10:46:24.417Z,63.40
2019-05-22T10:48:55.324Z,62.60
2019-05-22T10:51:26.198Z,63.80
2019-05-22T10:53:56.839Z,64.80
2019-05-22T10:56:27.873Z,63.00
2019-05-22T10:59:01.436Z,63.90
2019-05-22T11:01:32.097Z,64.50
2019-05-22T11:04:03.094Z,64.30
2019-05-22T11:06:33.887Z,64.30
2019-05-22T11:09:05.839Z,63.70
2019-05-22T11:11:37.233Z,63.90
2019-05-22T11:14:09.588Z,63.80
2019-05-22T11:16:40.697Z,63.30
2019-05-22T11:19:11.618Z,63.90
2019-05-22T11:21:42.324Z,64.40
2019-05-22T11:24:13.695Z,64.30
2019-05-22T11:26:46.123Z,65.00
2019-05-22T11:29:17.212Z,66.10
2019-05-22T11:31:48.184Z,66.00
2019-05-22T11:34:19.489Z,66.30
2019-05-22T11:36:50.219Z,65.20
2019-05-22T11:39:38.168Z,65.80
2019-05-22T11:41:54.694Z,66.00
2019-05-22T11:44:25.337Z,66.90
2019-05-22T11:46:56.320Z,67.00
2019-05-22T11:49:27.380Z,67.00
2019-05-22T11:51:58.606Z,67.20
2019-05-22T11:54:30.116Z,67.40
2019-05-22T11:57:01.195Z,67.80
2019-05-22T11:59:32.660Z,68.30
2019-05-22T12:02:04.377Z,68.90
2019-05-22T12:04:47.484Z,68.80
2019-05-22T12:07:08.398Z,69.50
2019-05-22T12:09:39.358Z,69.90
2019-05-22T12:12:11.939Z,70.30
2019-05-22T12:14:43.018Z,70.70
2019-05-22T12:17:13.735Z,70.70
2019-05-22T12:19:44.419Z,71.20
2019-05-22T12:22:15.111Z,71.20
2019-05-22T12:24:45.985Z,70.90
2019-05-22T12:27:16.795Z,72.00
2019-05-22T12:29:47.965Z,71.50
2019-05-22T12:32:19.158Z,72.40
2019-05-22T12:34:50.172Z,71.50
2019-05-22T12:37:21.593Z,72.90
2019-05-22T12:39:52.884Z,73.50
2019-05-22T12:42:23.781Z,73.40
2019-05-22T12:44:54.663Z,73.00
2019-05-22T12:47:26.051Z,73.80
2019-05-22T12:49:57.030Z,74.10
2019-05-22T12:52:27.911Z,73.60
2019-05-22T12:54:59.268Z,74.40
2019-05-22T12:57:30.151Z,74.80
2019-05-22T13:00:02.554Z,74.60
2019-05-22T13:02:34.531Z,75.10
2019-05-22T13:05:05.399Z,75.10
2019-05-22T13:07:36.082Z,75.40
2019-05-22T13:10:08.319Z,74.70
2019-05-22T13:12:39.201Z,74.50
2019-05-22T13:15:11.125Z,75.20
2019-05-22T13:17:42.173Z,76.20
2019-05-22T13:20:15.237Z,76.30
2019-05-22T13:22:48.504Z,77.20
2019-05-22T13:25:20.699Z,77.10
2019-05-22T13:27:51.584Z,77.00
2019-05-22T13:30:27.966Z,77.30
2019-05-22T13:32:56.777Z,78.10
2019-05-22T13:35:27.736Z,78.20
2019-05-22T13:37:59.347Z,78.30
2019-05-22T13:40:31.592Z,78.40
2019-05-22T13:43:02.840Z,78.20
2019-05-22T13:45:34.004Z,78.50
2019-05-22T13:48:04.798Z,78.50
2019-05-22T13:50:35.835Z,78.40
2019-05-22T13:53:07.641Z,78.50
2019-05-22T13:55:38.511Z,78.80
2019-05-22T13:58:09.239Z,78.80
2019-05-22T14:00:40.047Z,78.80
2019-05-22T14:03:10.751Z,79.20
2019-05-22T14:05:42.791Z,79.00
2019-05-22T14:08:13.558Z,78.70
2019-05-22T14:10:45.139Z,79.00
2019-05-22T14:13:16.919Z,79.50
2019-05-22T14:15:55.807Z,78.20
2019-05-22T14:18:20.343Z,78.10
2019-05-22T14:20:51.704Z,78.20
2019-05-22T14:23:22.857Z,78.90
2019-05-22T14:25:54.184Z,78.40
2019-05-22T14:28:26.458Z,80.00
2019-05-22T14:30:57.439Z,78.60
2019-05-22T14:33:28.530Z,78.40
2019-05-22T14:35:59.826Z,79.10
2019-05-22T14:38:31.082Z,78.70
2019-05-22T14:41:02.269Z,78.50
2019-05-22T14:43:33.137Z,79.00
2019-05-22T14:46:04.095Z,79.70
2019-05-22T14:48:35.371Z,79.90
2019-05-22T14:51:06.373Z,80.40
2019-05-22T14:53:38.906Z,80.70
2019-05-22T14:56:11.693Z,79.30
2019-05-22T14:58:43.071Z,80.40
2019-05-22T15:01:14.068Z,80.70
2019-05-22T15:03:44.880Z,81.10
2019-05-22T15:06:16.064Z,81.00
2019-05-22T15:08:47.086Z,80.40
2019-05-22T15:11:18.882Z,80.50
2019-05-22T15:13:49.900Z,80.90
2019-05-22T15:16:20.588Z,80.80
2019-05-22T15:18:51.629Z,80.70
2019-05-22T15:21:22.663Z,80.60
2019-05-22T15:23:53.358Z,80.90
2019-05-22T15:26:24.062Z,80.40
2019-05-22T15:28:54.944Z,80.60
2019-05-22T15:31:25.837Z,81.20
2019-05-22T15:33:57.110Z,81.30
2019-05-22T15:36:28.294Z,81.00
2019-05-22T15:38:59.079Z,81.40
2019-05-22T15:41:30.045Z,81.50
2019-05-22T15:44:01.111Z,81.30
2019-05-22T15:46:32.384Z,80.70
2019-05-22T15:49:03.771Z,81.10
2019-05-22T15:51:34.746Z,81.40
2019-05-22T15:54:05.744Z,81.50
2019-05-22T15:56:37.441Z,81.70
2019-05-22T15:59:08.532Z,81.90
2019-05-22T16:01:41.116Z,81.80
2019-05-22T16:04:13.811Z,82.10
2019-05-22T16:06:44.852Z,82.10
2019-05-22T16:09:16.820Z,82.50
2019-05-22T16:11:49.360Z,82.50
2019-05-22T16:14:20.819Z,83.00
2019-05-22T16:16:51.600Z,82.40
2019-05-22T16:19:24.139Z,83.60
2019-05-22T16:21:56.586Z,83.70
2019-05-22T16:24:27.866Z,84.10
2019-05-22T16:26:58.953Z,84.00
2019-05-22T16:29:30.082Z,83.70
2019-05-22T16:32:00.759Z,84.10
2019-05-22T16:34:31.476Z,83.90
2019-05-22T16:37:03.833Z,84.60
2019-05-22T16:39:34.540Z,84.80
2019-05-22T16:42:06.302Z,85.10
2019-05-22T16:44:37.056Z,85.00
2019-05-22T16:47:08.018Z,85.00
2019-05-22T16:49:39.087Z,84.90
2019-05-22T16:52:11.079Z,85.70
2019-05-22T16:54:42.557Z,85.30
2019-05-22T16:57:13.471Z,85.50
2019-05-22T16:59:45.076Z,84.70
2019-05-22T17:02:16.581Z,84.40
2019-05-22T17:04:47.954Z,86.00
2019-05-22T17:07:18.940Z,85.70
2019-05-22T17:09:51.986Z,86.10
2019-05-22T17:12:24.420Z,86.30
2019-05-22T17:14:55.143Z,86.70
2019-05-22T17:17:25.848Z,87.10
2019-05-22T17:19:56.513Z,86.80
2019-05-22T17:22:27.864Z,87.10
2019-05-22T17:24:58.636Z,87.40
2019-05-22T17:27:29.322Z,88.00
2019-05-22T17:30:00.616Z,87.80
2019-05-22T17:32:31.311Z,86.60
2019-05-22T17:35:02.108Z,86.50
2019-05-22T17:37:33.169Z,87.40
2019-05-22T17:40:05.075Z,87.20
2019-05-22T17:42:36.172Z,86.20
2019-05-22T17:45:10.392Z,87.00
2019-05-22T17:47:41.300Z,87.10
2019-05-22T17:50:26.353Z,87.90
2019-05-22T17:52:44.967Z,88.30
2019-05-22T17:55:16.147Z,87.30
2019-05-22T17:57:47.001Z,87.60
2019-05-22T18:00:20.391Z,87.60
2019-05-22T18:02:51.598Z,87.30
2019-05-22T18:05:22.595Z,86.70
2019-05-22T18:07:53.961Z,87.90
2019-05-22T18:10:25.322Z,88.80
2019-05-22T18:12:56.429Z,88.80
2019-05-22T18:15:27.102Z,87.90
2019-05-22T18:17:58.343Z,88.00
2019-05-22T18:20:41.816Z,88.20
2019-05-22T18:23:02.278Z,87.30
2019-05-22T18:25:33.364Z,86.70
2019-05-22T18:28:05.468Z,87.60
2019-05-22T18:30:37.438Z,85.30
2019-05-22T18:33:09.024Z,87.30
2019-05-22T18:35:39.968Z,88.40
2019-05-22T18:38:10.855Z,86.50
2019-05-22T18:40:41.735Z,88.60
2019-05-22T18:43:12.410Z,86.70
2019-05-22T18:45:43.087Z,84.70
2019-05-22T18:48:14.325Z,86.40
2019-05-22T18:50:45.737Z,85.80
2019-05-22T18:53:16.645Z,87.50
2019-05-22T18:55:47.324Z,87.10
2019-05-22T18:58:18.015Z,86.20
2019-05-22T19:00:48.866Z,88.10
2019-05-22T19:03:19.535Z,88.70
2019-05-22T19:05:50.198Z,89.10
2019-05-22T19:08:20.921Z,89.30
2019-05-22T19:10:51.598Z,89.50
2019-05-22T19:13:22.612Z,89.70
2019-05-22T19:15:53.280Z,89.80
2019-05-22T19:18:23.966Z,89.70
2019-05-22T19:20:54.986Z,90.00
2019-05-22T19:23:25.666Z,90.00
2019-05-22T19:25:56.323Z,89.70
2019-05-22T19:28:41.983Z,89.50
2019-05-22T19:30:59.440Z,89.30
2019-05-22T19:33:30.225Z,89.50
2019-05-22T19:36:01.219Z,89.90
2019-05-22T19:38:31.891Z,89.70
2019-05-22T19:41:02.661Z,89.80
2019-05-22T19:43:33.804Z,90.00
2019-05-22T19:46:05.240Z,90.00
2019-05-22T19:48:35.905Z,89.70
2019-05-22T19:51:06.598Z,89.80
2019-05-22T19:53:37.392Z,89.70
2019-05-22T19:56:08.894Z,89.10
2019-05-22T19:58:39.654Z,90.00
2019-05-22T20:01:11.441Z,88.70
2019-05-22T20:03:42.220Z,89.80
2019-05-22T20:06:13.201Z,90.00
2019-05-22T20:08:44.765Z,88.90
2019-05-22T20:11:15.559Z,89.60
2019-05-22T20:13:46.200Z,89.80
2019-05-22T20:16:16.893Z,89.00
2019-05-22T20:18:47.803Z,89.70
2019-05-22T20:21:19.122Z,89.50
2019-05-22T20:23:50.313Z,89.70
2019-05-22T20:26:21.513Z,89.20
2019-05-22T20:28:52.219Z,89.60
2019-05-22T20:31:23.221Z,88.70
2019-05-22T20:33:54.209Z,89.20
2019-05-22T20:36:24.899Z,89.80
2019-05-22T20:38:55.874Z,89.70
2019-05-22T20:41:26.820Z,89.10
2019-05-22T20:43:57.675Z,89.30
2019-05-22T20:46:28.359Z,90.20
2019-05-22T20:48:59.059Z,89.50
2019-05-22T20:51:30.311Z,89.30
2019-05-22T20:54:01.341Z,88.90
2019-05-22T20:56:33.002Z,89.40
2019-05-22T20:59:04.795Z,89.20
2019-05-22T21:01:36.056Z,89.40
2019-05-22T21:04:07.654Z,89.40
2019-05-22T21:06:41.337Z,89.50
2019-05-22T21:09:12.139Z,88.30
2019-05-22T21:11:42.781Z,88.20
2019-05-22T21:14:13.511Z,89.40
2019-05-22T21:16:44.901Z,89.50
2019-05-22T21:19:16.629Z,89.40
2019-05-22T21:21:49.713Z,89.20
2019-05-22T21:24:20.503Z,89.20
2019-05-22T21:26:51.167Z,89.60
2019-05-22T21:29:22.372Z,89.60
2019-05-22T21:31:53.137Z,89.60
2019-05-22T21:34:24.034Z,89.60
2019-05-22T21:36:54.812Z,89.70
2019-05-22T21:39:25.658Z,89.50
2019-05-22T21:41:56.678Z,89.50
2019-05-22T21:44:27.691Z,89.60
2019-05-22T21:46:58.372Z,89.10
2019-05-22T21:49:30.487Z,90.00
2019-05-22T21:52:01.679Z,90.10
2019-05-22T21:54:32.533Z,90.00
2019-05-22T21:57:03.180Z,90.00
2019-05-22T21:59:34.144Z,89.90
2019-05-22T22:02:06.199Z,89.70
2019-05-22T22:04:38.104Z,90.00
2019-05-22T22:07:09.333Z,90.10
2019-05-22T22:09:40.266Z,90.10
2019-05-22T22:12:11.843Z,90.10
2019-05-22T22:14:42.635Z,90.30
2019-05-22T22:17:14.559Z,90.20
2019-05-22T22:19:45.464Z,90.00
2019-05-22T22:22:19.757Z,90.00
2019-05-22T22:24:51.456Z,90.40
2019-05-22T22:27:22.547Z,90.20
2019-05-22T22:29:53.259Z,89.90
2019-05-22T22:32:25.190Z,89.60
2019-05-22T22:34:56.501Z,89.40
2019-05-22T22:37:27.600Z,89.10
2019-05-22T22:39:58.269Z,89.40
2019-05-22T22:42:30.210Z,90.10
2019-05-22T22:45:01.205Z,90.60
2019-05-22T22:47:33.128Z,90.40
2019-05-22T22:50:03.841Z,90.50
2019-05-22T22:52:34.807Z,90.60
2019-05-22T22:55:08.925Z,90.70
2019-05-22T22:57:40.402Z,90.50
2019-05-22T23:00:13.160Z,90.30
2019-05-22T23:02:43.927Z,90.50
2019-05-22T23:05:14.956Z,90.50
2019-05-22T23:07:45.649Z,90.90
2019-05-22T23:10:16.842Z,90.80
2019-05-22T23:12:48.308Z,90.80
2019-05-22T23:15:20.191Z,91.00
2019-05-22T23:17:51.810Z,91.20
2019-05-22T23:20:22.464Z,91.10
2019-05-22T23:22:53.138Z,91.20
2019-05-22T23:25:24.932Z,91.20
2019-05-22T23:27:56.784Z,91.20
2019-05-22T23:30:28.978Z,91.40
2019-05-22T23:32:59.625Z,91.50
2019-05-22T23:35:31.514Z,91.40
2019-05-22T23:38:03.272Z,91.50
2019-05-22T23:40:34.565Z,91.50
2019-05-22T23:43:06.057Z,91.60
2019-05-22T23:45:36.819Z,91.10
2019-05-22T23:48:10.560Z,91.40
2019-05-22T23:50:41.456Z,91.30
2019-05-22T23:53:13.671Z,91.20
2019-05-22T23:55:45.149Z,91.00
2019-05-22T23:58:17.653Z,90.80
